sensor_id;sensor_type;location;lat;lon;timestamp;pressure;altitude;pressure_sealevel;temperature;humidity
69574;BME280;62840;52.366;5.980;2022-11-15T00:02:15;100797.81;;;7.49;73.65
69574;BME280;62840;52.366;5.980;2022-11-15T00:04:41;100799.50;;;7.50;73.56
69574;BME280;62840;52.366;5.980;2022-11-15T00:07:09;100805.44;;;7.53;73.38
69574;BME280;62840;52.366;5.980;2022-11-15T00:09:35;100803.50;;;7.55;73.48
69574;BME280;62840;52.366;5.980;2022-11-15T00:12:01;100792.69;;;7.59;73.50
69574;BME280;62840;52.366;5.980;2022-11-15T00:14:26;100794.38;;;7.60;73.58
69574;BME280;62840;52.366;5.980;2022-11-15T00:16:52;100793.53;;;7.59;73.46
69574;BME280;62840;52.366;5.980;2022-11-15T00:19:18;100794.28;;;7.61;73.41
69574;BME280;62840;52.366;5.980;2022-11-15T00:21:43;100799.59;;;7.61;73.51
69574;BME280;62840;52.366;5.980;2022-11-15T00:24:12;100788.00;;;7.62;73.69
69574;BME280;62840;52.366;5.980;2022-11-15T00:26:38;100789.72;;;7.63;73.67
69574;BME280;62840;52.366;5.980;2022-11-15T00:29:03;100794.03;;;7.64;73.67
69574;BME280;62840;52.366;5.980;2022-11-15T00:31:29;100778.13;;;7.64;73.68
69574;BME280;62840;52.366;5.980;2022-11-15T00:33:55;100775.47;;;7.64;73.76
69574;BME280;62840;52.366;5.980;2022-11-15T00:36:21;100773.78;;;7.63;73.76
69574;BME280;62840;52.366;5.980;2022-11-15T00:38:46;100773.78;;;7.63;73.72
69574;BME280;62840;52.366;5.980;2022-11-15T00:41:15;100764.84;;;7.64;73.90
69574;BME280;62840;52.366;5.980;2022-11-15T00:43:40;100778.84;;;7.66;73.83
69574;BME280;62840;52.366;5.980;2022-11-15T00:46:06;100770.81;;;7.68;73.74
69574;BME280;62840;52.366;5.980;2022-11-15T00:48:35;100786.41;;;7.72;73.69
69574;BME280;62840;52.366;5.980;2022-11-15T00:51:01;100785.41;;;7.73;73.68
69574;BME280;62840;52.366;5.980;2022-11-15T00:53:26;100780.84;;;7.75;73.65
69574;BME280;62840;52.366;5.980;2022-11-15T00:55:52;100775.53;;;7.75;73.68
69574;BME280;62840;52.366;5.980;2022-11-15T00:58:21;100755.03;;;7.78;73.75
69574;BME280;62840;52.366;5.980;2022-11-15T01:00:46;100760.34;;;7.78;73.77
69574;BME280;62840;52.366;5.980;2022-11-15T01:03:12;100749.75;;;7.78;73.88
69574;BME280;62840;52.366;5.980;2022-11-15T01:05:38;100753.25;;;7.78;73.99
69574;BME280;62840;52.366;5.980;2022-11-15T01:08:04;100752.28;;;7.79;73.96
69574;BME280;62840;52.366;5.980;2022-11-15T01:10:30;100753.97;;;7.80;74.05
69574;BME280;62840;52.366;5.980;2022-11-15T01:12:56;100750.38;;;7.81;74.04
69574;BME280;62840;52.366;5.980;2022-11-15T01:15:24;100759.09;;;7.83;74.18
69574;BME280;62840;52.366;5.980;2022-11-15T01:17:50;100756.28;;;7.85;74.14
69574;BME280;62840;52.366;5.980;2022-11-15T01:20:16;100765.00;;;7.87;74.18
69574;BME280;62840;52.366;5.980;2022-11-15T01:22:42;100757.78;;;7.89;74.41
69574;BME280;62840;52.366;5.980;2022-11-15T01:25:08;100746.94;;;7.92;74.16
69574;BME280;62840;52.366;5.980;2022-11-15T01:27:33;100747.78;;;7.92;74.29
69574;BME280;62840;52.366;5.980;2022-11-15T01:29:59;100745.97;;;7.93;74.29
69574;BME280;62840;52.366;5.980;2022-11-15T01:32:27;100736.94;;;7.95;74.41
69574;BME280;62840;52.366;5.980;2022-11-15T01:34:53;100735.13;;;7.96;74.51
69574;BME280;62840;52.366;5.980;2022-11-15T01:37:19;100733.19;;;7.98;74.70
69574;BME280;62840;52.366;5.980;2022-11-15T01:39:44;100722.56;;;7.98;74.64
69574;BME280;62840;52.366;5.980;2022-11-15T01:42:12;100739.25;;;8.00;74.52
69574;BME280;62840;52.366;5.980;2022-11-15T01:44:42;100728.41;;;8.03;74.63
69574;BME280;62840;52.366;5.980;2022-11-15T01:47:12;100729.84;;;8.07;74.58
69574;BME280;62840;52.366;5.980;2022-11-15T01:49:50;100733.25;;;8.09;74.59
69574;BME280;62840;52.366;5.980;2022-11-15T01:52:22;100724.34;;;8.10;74.68
69574;BME280;62840;52.366;5.980;2022-11-15T01:54:56;100718.78;;;8.13;74.51
69574;BME280;62840;52.366;5.980;2022-11-15T01:57:26;100720.50;;;8.14;74.63
69574;BME280;62840;52.366;5.980;2022-11-15T01:59:53;100716.88;;;8.15;74.80
69574;BME280;62840;52.366;5.980;2022-11-15T02:02:20;100721.94;;;8.18;74.77
69574;BME280;62840;52.366;5.980;2022-11-15T02:04:49;100725.34;;;8.21;74.81
69574;BME280;62840;52.366;5.980;2022-11-15T02:07:17;100723.53;;;8.21;74.82
69574;BME280;62840;52.366;5.980;2022-11-15T02:09:45;100726.81;;;8.25;74.83
69574;BME280;62840;52.366;5.980;2022-11-15T02:12:13;100725.84;;;8.26;74.81
69574;BME280;62840;52.366;5.980;2022-11-15T02:14:45;100726.59;;;8.28;74.81
69574;BME280;62840;52.366;5.980;2022-11-15T02:17:32;100723.78;;;8.29;74.92
69574;BME280;62840;52.366;5.980;2022-11-15T02:20:41;100717.41;;;8.32;74.92
69574;BME280;62840;52.366;5.980;2022-11-15T02:23:46;100703.16;;;8.33;74.85
69574;BME280;62840;52.366;5.980;2022-11-15T02:27:22;100701.25;;;8.35;74.83
69574;BME280;62840;52.366;5.980;2022-11-15T02:30:24;100701.25;;;8.35;75.01
69574;BME280;62840;52.366;5.980;2022-11-15T02:33:03;100705.47;;;8.37;75.07
69574;BME280;62840;52.366;5.980;2022-11-15T02:35:48;100699.91;;;8.41;75.03
69574;BME280;62840;52.366;5.980;2022-11-15T02:38:28;100706.06;;;8.41;75.05
69574;BME280;62840;52.366;5.980;2022-11-15T02:41:02;100702.47;;;8.42;75.27
69574;BME280;62840;52.366;5.980;2022-11-15T02:43:37;100693.53;;;8.43;75.33
69574;BME280;62840;52.366;5.980;2022-11-15T02:46:14;100693.31;;;8.46;75.47
69574;BME280;62840;52.366;5.980;2022-11-15T02:48:44;100678.31;;;8.45;75.49
69574;BME280;62840;52.366;5.980;2022-11-15T02:51:12;100686.06;;;8.48;75.36
69574;BME280;62840;52.366;5.980;2022-11-15T02:53:39;100675.19;;;8.51;75.16
69574;BME280;62840;52.366;5.980;2022-11-15T02:56:07;100673.25;;;8.53;75.33
69574;BME280;62840;52.366;5.980;2022-11-15T02:58:58;100667.69;;;8.56;75.22
69574;BME280;62840;52.366;5.980;2022-11-15T03:01:51;100667.47;;;8.59;75.30
69574;BME280;62840;52.366;5.980;2022-11-15T03:04:34;100665.56;;;8.62;75.48
69574;BME280;62840;52.366;5.980;2022-11-15T03:07:14;100663.84;;;8.61;75.38
69574;BME280;62840;52.366;5.980;2022-11-15T03:09:51;100660.25;;;8.62;75.45
69574;BME280;62840;52.366;5.980;2022-11-15T03:12:30;100646.94;;;8.62;75.43
69574;BME280;62840;52.366;5.980;2022-11-15T03:15:05;100649.34;;;8.65;75.38
69574;BME280;62840;52.366;5.980;2022-11-15T03:17:43;100646.59;;;8.66;75.35
69574;BME280;62840;52.366;5.980;2022-11-15T03:20:17;100643.78;;;8.68;75.51
69574;BME280;62840;52.366;5.980;2022-11-15T03:22:45;100648.88;;;8.71;75.33
69574;BME280;62840;52.366;5.980;2022-11-15T03:25:18;100650.56;;;8.72;75.32
69574;BME280;62840;52.366;5.980;2022-11-15T03:27:51;100643.31;;;8.74;75.44
69574;BME280;62840;52.366;5.980;2022-11-15T03:30:20;100636.91;;;8.76;75.37
69574;BME280;62840;52.366;5.980;2022-11-15T03:32:51;100634.13;;;8.78;75.42
69574;BME280;62840;52.366;5.980;2022-11-15T03:35:22;100624.59;;;8.75;75.51
69574;BME280;62840;52.366;5.980;2022-11-15T03:37:53;100624.09;;;8.82;75.45
69574;BME280;62840;52.366;5.980;2022-11-15T03:40:29;100631.97;;;8.83;75.64
69574;BME280;62840;52.366;5.980;2022-11-15T03:43:07;100631.97;;;8.83;75.48
69574;BME280;62840;52.366;5.980;2022-11-15T03:45:44;100628.34;;;8.84;75.42
69574;BME280;62840;52.366;5.980;2022-11-15T03:48:22;100628.09;;;8.87;75.56
69574;BME280;62840;52.366;5.980;2022-11-15T03:50:51;100633.41;;;8.87;75.44
69574;BME280;62840;52.366;5.980;2022-11-15T03:53:18;100632.44;;;8.88;75.45
69574;BME280;62840;52.366;5.980;2022-11-15T03:55:44;100638.47;;;8.90;75.56
69574;BME280;62840;52.366;5.980;2022-11-15T03:58:10;100642.84;;;8.91;75.40
69574;BME280;62840;52.366;5.980;2022-11-15T04:00:35;100643.56;;;8.93;75.51
69574;BME280;62840;52.366;5.980;2022-11-15T04:03:01;100643.31;;;8.96;75.60
69574;BME280;62840;52.366;5.980;2022-11-15T04:05:30;100643.06;;;8.99;75.52
69574;BME280;62840;52.366;5.980;2022-11-15T04:07:55;100642.13;;;9.00;75.76
69574;BME280;62840;52.366;5.980;2022-11-15T04:10:21;100638.25;;;9.05;75.87
69574;BME280;62840;52.366;5.980;2022-11-15T04:12:47;100638.97;;;9.07;75.68
69574;BME280;62840;52.366;5.980;2022-11-15T04:15:14;100631.72;;;9.09;75.80
69574;BME280;62840;52.366;5.980;2022-11-15T04:17:43;100637.63;;;9.12;75.69
69574;BME280;62840;52.366;5.980;2022-11-15T04:20:13;100632.91;;;9.16;75.84
69574;BME280;62840;52.366;5.980;2022-11-15T04:22:43;100638.09;;;9.17;75.74
69574;BME280;62840;52.366;5.980;2022-11-15T04:25:09;100634.38;;;9.20;75.94
69574;BME280;62840;52.366;5.980;2022-11-15T04:27:34;100637.72;;;9.22;76.01
69574;BME280;62840;52.366;5.980;2022-11-15T04:30:00;100642.81;;;9.25;75.96
69574;BME280;62840;52.366;5.980;2022-11-15T04:32:26;100635.56;;;9.27;75.82
69574;BME280;62840;52.366;5.980;2022-11-15T04:34:52;100638.84;;;9.31;75.90
69574;BME280;62840;52.366;5.980;2022-11-15T04:37:17;100628.06;;;9.32;75.99
69574;BME280;62840;52.366;5.980;2022-11-15T04:39:46;100634.13;;;9.34;75.92
69574;BME280;62840;52.366;5.980;2022-11-15T04:42:11;100626.88;;;9.36;75.82
69574;BME280;62840;52.366;5.980;2022-11-15T04:44:37;100631.94;;;9.39;75.85
69574;BME280;62840;52.366;5.980;2022-11-15T04:47:03;100637.03;;;9.43;75.93
69574;BME280;62840;52.366;5.980;2022-11-15T04:49:29;100639.69;;;9.43;75.80
69574;BME280;62840;52.366;5.980;2022-11-15T04:51:54;100641.38;;;9.44;75.96
69574;BME280;62840;52.366;5.980;2022-11-15T04:54:20;100636.03;;;9.44;75.87
69574;BME280;62840;52.366;5.980;2022-11-15T04:56:48;100635.78;;;9.47;76.00
69574;BME280;62840;52.366;5.980;2022-11-15T04:59:14;100628.50;;;9.49;76.10
69574;BME280;62840;52.366;5.980;2022-11-15T05:01:40;100631.06;;;9.50;76.06
69574;BME280;62840;52.366;5.980;2022-11-15T05:04:06;100637.22;;;9.51;75.87
69574;BME280;62840;52.366;5.980;2022-11-15T05:06:32;100628.03;;;9.55;75.82
69574;BME280;62840;52.366;5.980;2022-11-15T05:08:58;100629.69;;;9.56;75.70
69574;BME280;62840;52.366;5.980;2022-11-15T05:11:24;100619.03;;;9.56;75.81
69574;BME280;62840;52.366;5.980;2022-11-15T05:13:53;100625.97;;;9.58;75.85
69574;BME280;62840;52.366;5.980;2022-11-15T05:16:19;100628.47;;;9.60;75.94
69574;BME280;62840;52.366;5.980;2022-11-15T05:18:45;100626.81;;;9.59;75.93
69574;BME280;62840;52.366;5.980;2022-11-15T05:21:12;100627.53;;;9.61;75.97
69574;BME280;62840;52.366;5.980;2022-11-15T05:23:40;100623.03;;;9.61;75.95
69574;BME280;62840;52.366;5.980;2022-11-15T05:26:07;100623.66;;;9.65;75.94
69574;BME280;62840;52.366;5.980;2022-11-15T05:28:34;100620.84;;;9.67;75.90
69574;BME280;62840;52.366;5.980;2022-11-15T05:31:04;100618.91;;;9.69;75.70
69574;BME280;62840;52.366;5.980;2022-11-15T05:33:31;100625.94;;;9.70;75.89
69574;BME280;62840;52.366;5.980;2022-11-15T05:36:02;100629.16;;;9.73;75.81
69574;BME280;62840;52.366;5.980;2022-11-15T05:38:32;100628.22;;;9.74;75.80
69574;BME280;62840;52.366;5.980;2022-11-15T05:40:59;100628.94;;;9.76;75.90
69574;BME280;62840;52.366;5.980;2022-11-15T05:43:26;100636.66;;;9.79;76.02
69574;BME280;62840;52.366;5.980;2022-11-15T05:45:54;100638.31;;;9.80;75.99
69574;BME280;62840;52.366;5.980;2022-11-15T05:48:23;100627.44;;;9.83;75.87
69574;BME280;62840;52.366;5.980;2022-11-15T05:50:49;100628.28;;;9.84;76.07
69574;BME280;62840;52.366;5.980;2022-11-15T05:53:17;100629.13;;;9.84;75.97
69574;BME280;62840;52.366;5.980;2022-11-15T05:55:47;100635.28;;;9.85;75.95
69574;BME280;62840;52.366;5.980;2022-11-15T05:58:13;100638.66;;;9.87;75.98
69574;BME280;62840;52.366;5.980;2022-11-15T06:00:39;100636.00;;;9.87;75.82
69574;BME280;62840;52.366;5.980;2022-11-15T06:03:06;100637.56;;;9.90;75.94
69574;BME280;62840;52.366;5.980;2022-11-15T06:05:34;100637.31;;;9.93;75.94
69574;BME280;62840;52.366;5.980;2022-11-15T06:08:00;100641.66;;;9.94;76.09
69574;BME280;62840;52.366;5.980;2022-11-15T06:10:26;100642.66;;;9.93;76.21
69574;BME280;62840;52.366;5.980;2022-11-15T06:12:56;100639.00;;;9.94;76.22
69574;BME280;62840;52.366;5.980;2022-11-15T06:15:22;100651.38;;;9.95;76.01
69574;BME280;62840;52.366;5.980;2022-11-15T06:17:48;100652.09;;;9.97;76.01
69574;BME280;62840;52.366;5.980;2022-11-15T06:20:14;100641.44;;;9.97;76.17
69574;BME280;62840;52.366;5.980;2022-11-15T06:22:43;100651.09;;;9.98;76.17
69574;BME280;62840;52.366;5.980;2022-11-15T06:25:09;100664.16;;;10.01;76.20
69574;BME280;62840;52.366;5.980;2022-11-15T06:27:34;100663.19;;;10.02;76.19
69574;BME280;62840;52.366;5.980;2022-11-15T06:30:00;100658.72;;;10.02;76.17
69574;BME280;62840;52.366;5.980;2022-11-15T06:32:26;100669.47;;;10.01;76.13
69574;BME280;62840;52.366;5.980;2022-11-15T06:34:53;100672.88;;;10.03;76.13
69574;BME280;62840;52.366;5.980;2022-11-15T06:37:19;100678.91;;;10.05;76.10
69574;BME280;62840;52.366;5.980;2022-11-15T06:39:48;100668.25;;;10.05;76.14
69574;BME280;62840;52.366;5.980;2022-11-15T06:42:13;100682.31;;;10.07;76.06
69574;BME280;62840;52.366;5.980;2022-11-15T06:44:39;100676.13;;;10.07;76.16
69574;BME280;62840;52.366;5.980;2022-11-15T06:47:05;100677.81;;;10.08;76.35
69574;BME280;62840;52.366;5.980;2022-11-15T06:49:30;100676.97;;;10.07;76.21
69574;BME280;62840;52.366;5.980;2022-11-15T06:51:56;100675.31;;;10.06;76.40
69574;BME280;62840;52.366;5.980;2022-11-15T06:54:22;100678.69;;;10.08;76.19
69574;BME280;62840;52.366;5.980;2022-11-15T06:56:50;100680.38;;;10.09;76.39
69574;BME280;62840;52.366;5.980;2022-11-15T06:59:16;100681.09;;;10.11;76.40
69574;BME280;62840;52.366;5.980;2022-11-15T07:01:41;100674.75;;;10.12;76.20
69574;BME280;62840;52.366;5.980;2022-11-15T07:04:07;100671.16;;;10.13;76.30
69574;BME280;62840;52.366;5.980;2022-11-15T07:06:33;100672.81;;;10.14;76.21
69574;BME280;62840;52.366;5.980;2022-11-15T07:08:59;100674.53;;;10.15;76.23
69574;BME280;62840;52.366;5.980;2022-11-15T07:11:24;100673.53;;;10.16;76.29
69574;BME280;62840;52.366;5.980;2022-11-15T07:13:53;100681.28;;;10.19;76.29
69574;BME280;62840;52.366;5.980;2022-11-15T07:16:18;100678.38;;;10.22;76.29
69574;BME280;62840;52.366;5.980;2022-11-15T07:18:44;100694.34;;;10.22;76.26
69574;BME280;62840;52.366;5.980;2022-11-15T07:21:10;100695.06;;;10.24;76.15
69574;BME280;62840;52.366;5.980;2022-11-15T07:23:37;100703.78;;;10.27;76.36
69574;BME280;62840;52.366;5.980;2022-11-15T07:26:03;100702.81;;;10.28;76.30
69574;BME280;62840;52.366;5.980;2022-11-15T07:28:30;100704.50;;;10.29;76.37
69574;BME280;62840;52.366;5.980;2022-11-15T07:31:01;100706.19;;;10.30;76.21
69574;BME280;62840;52.366;5.980;2022-11-15T07:33:28;100705.22;;;10.31;76.18
69574;BME280;62840;52.366;5.980;2022-11-15T07:35:53;100704.25;;;10.32;76.33
69574;BME280;62840;52.366;5.980;2022-11-15T07:38:23;100703.28;;;10.33;76.32
69574;BME280;62840;52.366;5.980;2022-11-15T07:40:55;100694.31;;;10.34;76.29
69574;BME280;62840;52.366;5.980;2022-11-15T07:43:22;100690.66;;;10.35;76.45
69574;BME280;62840;52.366;5.980;2022-11-15T07:45:48;100690.53;;;10.36;76.23
69574;BME280;62840;52.366;5.980;2022-11-15T07:48:16;100684.25;;;10.37;76.07
69574;BME280;62840;52.366;5.980;2022-11-15T07:50:42;100688.47;;;10.40;76.49
69574;BME280;62840;52.366;5.980;2022-11-15T07:53:09;100692.69;;;10.42;76.36
69574;BME280;62840;52.366;5.980;2022-11-15T07:55:35;100691.84;;;10.42;76.45
69574;BME280;62840;52.366;5.980;2022-11-15T07:58:02;100693.53;;;10.43;76.50
69574;BME280;62840;52.366;5.980;2022-11-15T08:00:29;100687.22;;;10.44;76.48
69574;BME280;62840;52.366;5.980;2022-11-15T08:03:01;100689.63;;;10.47;76.40
69574;BME280;62840;52.366;5.980;2022-11-15T08:05:31;100696.41;;;10.51;76.53
69574;BME280;62840;52.366;5.980;2022-11-15T08:07:57;100694.44;;;10.53;76.55
69574;BME280;62840;52.366;5.980;2022-11-15T08:10:24;100698.06;;;10.52;76.67
69574;BME280;62840;52.366;5.980;2022-11-15T08:12:57;100701.47;;;10.54;76.56
69574;BME280;62840;52.366;5.980;2022-11-15T08:15:24;100708.22;;;10.58;76.60
69574;BME280;62840;52.366;5.980;2022-11-15T08:17:53;100703.63;;;10.60;76.82
69574;BME280;62840;52.366;5.980;2022-11-15T08:20:19;100699.00;;;10.62;76.69
69574;BME280;62840;52.366;5.980;2022-11-15T08:22:48;100698.72;;;10.65;76.95
69574;BME280;62840;52.366;5.980;2022-11-15T08:25:14;100696.78;;;10.67;76.77
69574;BME280;62840;52.366;5.980;2022-11-15T08:27:40;100698.22;;;10.72;76.94
69574;BME280;62840;52.366;5.980;2022-11-15T08:30:07;100690.91;;;10.74;76.85
69574;BME280;62840;52.366;5.980;2022-11-15T08:32:33;100690.66;;;10.77;76.87
69574;BME280;62840;52.366;5.980;2022-11-15T08:34:59;100690.41;;;10.80;76.76
69574;BME280;62840;52.366;5.980;2022-11-15T08:37:25;100690.13;;;10.83;76.89
69574;BME280;62840;52.366;5.980;2022-11-15T08:39:53;100687.19;;;10.86;76.86
69574;BME280;62840;52.366;5.980;2022-11-15T08:42:19;100682.59;;;10.88;77.01
69574;BME280;62840;52.366;5.980;2022-11-15T08:44:45;100691.31;;;10.90;76.86
69574;BME280;62840;52.366;5.980;2022-11-15T08:47:11;100678.69;;;10.92;76.84
69574;BME280;62840;52.366;5.980;2022-11-15T08:49:37;100676.72;;;10.94;76.90
69574;BME280;62840;52.366;5.980;2022-11-15T08:52:03;100676.47;;;10.97;76.85
69574;BME280;62840;52.366;5.980;2022-11-15T08:54:29;100674.38;;;11.01;77.05
69574;BME280;62840;52.366;5.980;2022-11-15T08:56:57;100677.59;;;11.04;76.89
69574;BME280;62840;52.366;5.980;2022-11-15T08:59:23;100677.34;;;11.07;76.92
69574;BME280;62840;52.366;5.980;2022-11-15T09:01:49;100675.41;;;11.10;77.13
69574;BME280;62840;52.366;5.980;2022-11-15T09:04:14;100671.63;;;11.12;77.03
69574;BME280;62840;52.366;5.980;2022-11-15T09:06:40;100667.81;;;11.15;77.16
69574;BME280;62840;52.366;5.980;2022-11-15T09:09:06;100672.88;;;11.18;77.06
69574;BME280;62840;52.366;5.980;2022-11-15T09:11:32;100664.75;;;11.19;76.90
69574;BME280;62840;52.366;5.980;2022-11-15T09:14:00;100660.97;;;11.22;77.09
69574;BME280;62840;52.366;5.980;2022-11-15T09:16:26;100667.84;;;11.24;76.90
69574;BME280;62840;52.366;5.980;2022-11-15T09:18:55;100664.06;;;11.27;77.08
69574;BME280;62840;52.366;5.980;2022-11-15T09:21:21;100664.78;;;11.29;77.21
69574;BME280;62840;52.366;5.980;2022-11-15T09:23:46;100653.84;;;11.32;77.11
69574;BME280;62840;52.366;5.980;2022-11-15T09:26:14;100657.06;;;11.36;77.14
69574;BME280;62840;52.366;5.980;2022-11-15T09:28:40;100656.94;;;11.37;77.15
69574;BME280;62840;52.366;5.980;2022-11-15T09:31:09;100654.97;;;11.39;77.20
69574;BME280;62840;52.366;5.980;2022-11-15T09:33:35;100649.34;;;11.42;77.06
69574;BME280;62840;52.366;5.980;2022-11-15T09:36:03;100646.84;;;11.41;77.46
69574;BME280;62840;52.366;5.980;2022-11-15T09:38:31;100654.44;;;11.45;77.12
69574;BME280;62840;52.366;5.980;2022-11-15T09:41:24;100647.97;;;11.48;77.15
69574;BME280;62840;52.366;5.980;2022-11-15T09:44:11;100655.56;;;11.53;77.26
69574;BME280;62840;52.366;5.980;2022-11-15T09:47:03;100650.94;;;11.55;77.33
69574;BME280;62840;52.366;5.980;2022-11-15T09:49:41;100646.31;;;11.57;77.12
69574;BME280;62840;52.366;5.980;2022-11-15T09:52:07;100647.97;;;11.58;77.31
69574;BME280;62840;52.366;5.980;2022-11-15T09:54:36;100641.50;;;11.60;77.02
69574;BME280;62840;52.366;5.980;2022-11-15T09:57:09;100645.72;;;11.63;76.92
69574;BME280;62840;52.366;5.980;2022-11-15T09:59:48;100642.09;;;11.64;77.10
69574;BME280;62840;52.366;5.980;2022-11-15T10:02:41;100638.16;;;11.68;77.17
69574;BME280;62840;52.366;5.980;2022-11-15T10:05:18;100634.22;;;11.72;77.36
69574;BME280;62840;52.366;5.980;2022-11-15T10:07:50;100635.78;;;11.75;77.28
69574;BME280;62840;52.366;5.980;2022-11-15T10:10:29;100629.31;;;11.77;77.25
69574;BME280;62840;52.366;5.980;2022-11-15T10:13:00;100629.00;;;11.80;77.24
69574;BME280;62840;52.366;5.980;2022-11-15T10:15:27;100626.91;;;11.84;77.31
69574;BME280;62840;52.366;5.980;2022-11-15T10:18:06;100632.81;;;11.87;77.00
69574;BME280;62840;52.366;5.980;2022-11-15T10:20:44;100630.84;;;11.89;77.09
69574;BME280;62840;52.366;5.980;2022-11-15T10:23:14;100622.41;;;11.94;77.30
69574;BME280;62840;52.366;5.980;2022-11-15T10:25:42;100627.31;;;11.99;77.09
69574;BME280;62840;52.366;5.980;2022-11-15T10:28:13;100624.38;;;12.02;76.84
69574;BME280;62840;52.366;5.980;2022-11-15T10:30:43;100616.06;;;12.05;77.00
69574;BME280;62840;52.366;5.980;2022-11-15T10:33:23;100607.75;;;12.08;76.45
69574;BME280;62840;52.366;5.980;2022-11-15T10:36:19;100611.13;;;12.10;76.64
69574;BME280;62840;52.366;5.980;2022-11-15T10:38:53;100597.78;;;12.10;76.51
69574;BME280;62840;52.366;5.980;2022-11-15T10:41:22;100603.81;;;12.12;76.41
69574;BME280;62840;52.366;5.980;2022-11-15T10:44:07;100600.19;;;12.13;76.30
69574;BME280;62840;52.366;5.980;2022-11-15T10:46:38;100601.84;;;12.14;76.17
69574;BME280;62840;52.366;5.980;2022-11-15T10:49:14;100602.56;;;12.16;76.17
69574;BME280;62840;52.366;5.980;2022-11-15T10:51:45;100596.38;;;12.16;76.15
69574;BME280;62840;52.366;5.980;2022-11-15T10:54:28;100605.94;;;12.18;76.24
69574;BME280;62840;52.366;5.980;2022-11-15T10:57:00;100598.91;;;12.17;76.02
69574;BME280;62840;52.366;5.980;2022-11-15T10:59:36;100595.53;;;12.15;75.82
69574;BME280;62840;52.366;5.980;2022-11-15T11:02:27;100598.22;;;12.15;75.95
69574;BME280;62840;52.366;5.980;2022-11-15T11:04:59;100592.84;;;12.15;75.93
69574;BME280;62840;52.366;5.980;2022-11-15T11:07:27;100577.66;;;12.16;76.08
69574;BME280;62840;52.366;5.980;2022-11-15T11:10:00;100580.31;;;12.16;75.78
69574;BME280;62840;52.366;5.980;2022-11-15T11:12:30;100586.38;;;12.18;75.67
69574;BME280;62840;52.366;5.980;2022-11-15T11:14:58;100577.53;;;12.17;75.61
69574;BME280;62840;52.366;5.980;2022-11-15T11:17:36;100559.78;;;12.16;75.25
69574;BME280;62840;52.366;5.980;2022-11-15T11:20:21;100542.75;;;12.17;75.54
69574;BME280;62840;52.366;5.980;2022-11-15T11:23:02;100553.47;;;12.17;75.31
69574;BME280;62840;52.366;5.980;2022-11-15T11:25:44;100549.78;;;12.18;75.35
69574;BME280;62840;52.366;5.980;2022-11-15T11:28:35;100551.47;;;12.19;75.29
69574;BME280;62840;52.366;5.980;2022-11-15T11:31:16;100546.09;;;12.19;75.60
69574;BME280;62840;52.366;5.980;2022-11-15T11:33:55;100547.81;;;12.20;75.38
69574;BME280;62840;52.366;5.980;2022-11-15T11:36:39;100554.56;;;12.24;75.10
69574;BME280;62840;52.366;5.980;2022-11-15T11:39:23;100553.69;;;12.24;74.93
69574;BME280;62840;52.366;5.980;2022-11-15T11:42:04;100545.84;;;12.22;74.79
69574;BME280;62840;52.366;5.980;2022-11-15T11:44:45;100548.66;;;12.21;74.52
69574;BME280;62840;52.366;5.980;2022-11-15T11:47:23;100547.81;;;12.20;74.71
69574;BME280;62840;52.366;5.980;2022-11-15T11:49:51;100535.41;;;12.19;74.67
69574;BME280;62840;52.366;5.980;2022-11-15T11:52:27;100534.00;;;12.25;74.55
69574;BME280;62840;52.366;5.980;2022-11-15T11:55:02;100536.53;;;12.26;74.35
69574;BME280;62840;52.366;5.980;2022-11-15T11:57:41;100540.19;;;12.25;74.04
69574;BME280;62840;52.366;5.980;2022-11-15T12:00:16;100538.22;;;12.27;74.15
69574;BME280;62840;52.366;5.980;2022-11-15T12:02:48;100532.59;;;12.30;73.97
69574;BME280;62840;52.366;5.980;2022-11-15T12:05:30;100528.94;;;12.31;73.85
69574;BME280;62840;52.366;5.980;2022-11-15T12:08:09;100528.94;;;12.31;73.79
69574;BME280;62840;52.366;5.980;2022-11-15T12:10:51;100523.91;;;12.28;73.67
69574;BME280;62840;52.366;5.980;2022-11-15T12:13:26;100532.88;;;12.27;73.36
69574;BME280;62840;52.366;5.980;2022-11-15T12:16:01;100520.50;;;12.26;73.23
69574;BME280;62840;52.366;5.980;2022-11-15T12:18:32;100519.81;;;12.24;73.35
69574;BME280;62840;52.366;5.980;2022-11-15T12:21:03;100518.41;;;12.20;73.18
69574;BME280;62840;52.366;5.980;2022-11-15T12:23:46;100519.38;;;12.19;72.98
69574;BME280;62840;52.366;5.980;2022-11-15T12:26:20;100516.88;;;12.18;73.28
69574;BME280;62840;52.366;5.980;2022-11-15T12:28:52;100508.97;;;12.16;73.13
69574;BME280;62840;52.366;5.980;2022-11-15T12:31:26;100506.63;;;12.13;73.08
69574;BME280;62840;52.366;5.980;2022-11-15T12:34:04;100493.50;;;12.10;72.54
69574;BME280;62840;52.366;5.980;2022-11-15T12:36:54;100481.16;;;12.09;72.42
69574;BME280;62840;52.366;5.980;2022-11-15T12:42:56;100473.56;;;12.04;72.57
69574;BME280;62840;52.366;5.980;2022-11-15T12:45:29;100477.09;;;12.05;72.59
69574;BME280;62840;52.366;5.980;2022-11-15T12:54:52;100451.34;;;12.04;72.16
69574;BME280;62840;52.366;5.980;2022-11-15T12:57:40;100449.66;;;12.03;71.89
69574;BME280;62840;52.366;5.980;2022-11-15T13:03:31;100447.97;;;12.02;71.56
69574;BME280;62840;52.366;5.980;2022-11-15T13:09:02;100428.56;;;12.00;72.02
69574;BME280;62840;52.366;5.980;2022-11-15T13:14:43;100422.53;;;11.98;71.55
69574;BME280;62840;52.366;5.980;2022-11-15T13:17:30;100428.84;;;11.97;71.66
69574;BME280;62840;52.366;5.980;2022-11-15T13:20:00;100415.66;;;11.95;71.70
69574;BME280;62840;52.366;5.980;2022-11-15T13:22:41;100413.81;;;11.96;71.63
69574;BME280;62840;52.366;5.980;2022-11-15T13:25:21;100407.78;;;11.94;71.58
69574;BME280;62840;52.366;5.980;2022-11-15T13:28:11;100407.78;;;11.94;71.10
69574;BME280;62840;52.366;5.980;2022-11-15T13:30:50;100406.09;;;11.93;70.94
69574;BME280;62840;52.366;5.980;2022-11-15T13:33:25;100407.06;;;11.91;70.56
69574;BME280;62840;52.366;5.980;2022-11-15T13:35:57;100405.25;;;11.92;70.83